Latest Weather Observations for Parafield

IDS60901

Issued at 9:31 pm CDT Monday 10 December 2018 (issued every 10 minutes, with the page automatically refreshed every 10 minutes)

About weather observations | Map of Adelaide area stations | Latest observations for Adelaide area | Other Formats
Station Details ID: 023013 Name: PARAFIELD AIRPORT Lat: -34.80 Lon: 138.63 Height: 9.5 m
Data from the previous 72 hours. | See also: Recent months at Parafield
Date/Time
CDT
Temp
°C
App
Temp
°C
Dew
Point
°C
Rel
Hum
%
Delta-T
°C
Wind Press
QNH
hPa
Press
MSL
hPa
Rain since
9am
mm
Dir  Spd
km/h
Gust
km/h
Spd
kts
Gust
kts
10/09:30pm 19.1 16.5 7.8 48 5.8 S 11 19 6 10 1016.7 1016.7 0.0
10/09:00pm 19.8 17.1 5.8 40 6.9 S 9 13 5 7 1016.8 1016.8 0.0
10/08:30pm 21.2 16.5 3.0 30 8.6 SSE 17 22 9 12 1016.5 1016.5 0.0
10/08:00pm 22.4 17.1 2.0 26 9.6 SE 19 28 10 15 1016.3 1016.3 0.0
10/07:30pm 23.5 18.3 2.4 25 10.0 SE 19 28 10 15 1016.2 1016.2 0.0
10/07:00pm 24.0 19.4 3.9 27 9.9 SE 17 24 9 13 1016.2 1016.2 0.0
10/06:30pm 24.9 20.0 4.1 26 10.3 SE 19 24 10 13 1016.0 1016.0 0.0
10/06:00pm 24.8 19.3 4.0 26 10.3 SE 22 30 12 16 1015.7 1015.7 0.0
10/05:30pm 25.6 19.4 4.1 25 10.7 SE 26 35 14 19 1015.6 1015.6 0.0
10/05:00pm 25.4 19.2 4.5 26 10.5 ESE 26 35 14 19 1015.7 1015.7 0.0
10/04:30pm 26.3 20.6 4.7 25 10.9 SE 24 32 13 17 1015.7 1015.7 0.0
10/04:00pm 26.9 20.6 4.0 23 11.5 ESE 26 33 14 18 1015.9 1015.9 0.0
10/03:30pm 27.8 21.6 4.2 22 11.9 ESE 26 32 14 17 1016.0 1016.0 0.0
10/03:00pm 26.9 21.4 4.0 23 11.5 ESE 22 32 12 17 1016.2 1016.2 0.0
10/02:30pm 28.2 22.9 3.1 20 12.5 SE 20 30 11 16 1016.2 1016.2 0.0
10/02:00pm 29.6 24.5 2.8 18 13.4 ESE 19 26 10 14 1016.4 1016.4 0.0
10/01:30pm 28.0 23.0 3.7 21 12.2 ESE 19 24 10 13 1016.6 1016.6 0.0
10/01:00pm 28.7 23.4 2.8 19 12.9 SE 20 30 11 16 1016.7 1016.7 0.0
10/12:30pm 28.4 23.7 3.3 20 12.5 SE 17 26 9 14 1017.1 1017.1 0.0
10/12:00pm 27.2 22.9 3.0 21 11.9 E 15 24 8 13 1017.3 1017.3 0.0
10/11:30am 27.1 21.2 1.5 19 12.3 ESE 22 28 12 15 1017.4 1017.4 0.0
10/11:00am 25.8 20.7 3.1 23 11.1 SSE 19 30 10 16 1017.5 1017.5 0.0
10/10:30am 25.4 21.3 4.5 26 10.5 SE 15 22 8 12 1017.6 1017.6 0.0
10/10:00am 24.3 20.2 4.6 28 9.8 ESE 15 24 8 13 1017.9 1017.9 0.0
10/09:30am 23.2 17.6 5.2 31 9.0 SE 24 32 13 17 1018.0 1018.0 0.0
10/09:00am 22.1 17.3 5.5 34 8.3 SE 20 28 11 15 1017.8 1017.8 0.0
10/08:30am 20.3 17.0 8.0 45 6.4 SSE 15 26 8 14 1017.7 1017.7 0.0
10/08:00am 18.6 15.4 8.6 52 5.2 SE 15 20 8 11 1017.6 1017.6 0.0
10/07:30am 17.7 13.7 8.3 54 4.8 SE 19 30 10 16 1017.5 1017.5 0.0
10/07:00am 16.4 14.5 9.1 62 3.8 SSE 9 19 5 10 1017.3 1017.3 0.0
10/06:30am 12.9 11.5 9.4 79 1.8 WNW 7 9 4 5 1017.1 1017.1 0.0
10/06:00am 13.0 12.0 8.9 76 2.1 SW 4 11 2 6 1016.7 1016.7 0.0
10/05:30am 11.8 10.0 7.9 77 1.9 SW 7 9 4 5 1016.6 1016.6 0.0
10/05:00am 12.8 12.0 8.1 73 2.3 SW 2 7 1 4 1016.5 1016.5 0.0
10/04:30am 12.2 11.1 8.3 77 1.9 SSW 4 6 2 3 1016.6 1016.6 0.0
10/04:00am 11.8 10.2 7.9 77 1.9 SW 6 7 3 4 1016.7 1016.7 0.0
10/03:30am 12.7 11.6 8.4 75 2.1 NE 4 7 2 4 1016.9 1016.9 0.0
10/03:00am 12.4 11.5 7.7 73 2.3 WSW 2 7 1 4 1017.0 1017.0 0.0
10/02:30am 13.8 13.2 7.6 66 3.0 CALM 0 0 0 0 1017.0 1017.0 0.0
10/02:00am 13.9 12.0 6.7 62 3.5 SSW 6 7 3 4 1017.2 1017.2 0.0
10/01:30am 15.5 14.9 7.5 59 4.0 CALM 0 0 0 0 1017.4 1017.4 0.0
10/01:00am 15.5 13.4 6.8 56 4.3 SW 7 13 4 7 1017.5 1017.5 0.0
10/12:30am 15.9 13.6 7.4 57 4.2 SSW 9 13 5 7 1017.3 1017.3 0.0
10/12:00am 16.1 13.9 7.8 58 4.2 SSW 9 13 5 7 1017.1 1017.1 0.0
 
Date/Time
CDT
Temp
°C
App
Temp
°C
Dew
Point
°C
Rel
Hum
%
Delta-T
°C
Wind Press
QNH
hPa
Press
MSL
hPa
Rain since
9am
mm
Dir  Spd
km/h
Gust
km/h
Spd
kts
Gust
kts
09/11:30pm 17.3 14.3 7.9 54 4.8 SW 13 17 7 9 1017.1 1017.1 0.0
09/11:00pm 17.5 16.0 8.6 56 4.6 S 6 9 3 5 1017.0 1017.0 0.0
09/10:30pm 18.2 16.2 8.5 53 5.0 SSE 9 11 5 6 1016.9 1016.9 0.0
09/10:00pm 19.0 17.2 9.5 54 5.0 ESE 9 11 5 6 1016.7 1016.7 0.0
09/09:30pm 19.9 18.1 7.9 46 6.2 ESE 7 9 4 5 1016.4 1016.4 0.0
09/09:00pm 20.7 18.0 7.3 42 6.9 SE 11 13 6 7 1016.1 1016.1 0.0
09/08:30pm 22.2 18.7 5.6 34 8.3 SSE 13 17 7 9 1015.8 1015.8 0.0
09/08:00pm 23.3 19.0 5.2 31 9.1 SE 17 20 9 11 1015.2 1015.2 0.0
09/07:30pm 24.5 19.9 6.3 31 9.4 SE 20 26 11 14 1014.9 1014.9 0.0
09/07:00pm 25.8 21.1 7.9 32 9.6 SE 22 26 12 14 1014.0 1014.0 0.0
09/06:30pm 27.0 23.1 9.4 33 9.7 SSE 20 28 11 15 1013.5 1013.5 0.0
09/06:00pm 28.4 24.7 10.1 32 10.3 SSW 20 26 11 14 1013.2 1013.2 0.0
09/05:30pm 28.9 24.7 11.0 33 10.2 SW 24 32 13 17 1013.0 1013.0 0.0
09/05:00pm 28.9 24.1 11.5 34 10.0 SW 28 39 15 21 1012.9 1012.9 0.0
09/04:30pm 30.8 26.5 13.1 34 10.5 SW 28 39 15 21 1012.7 1012.7 0.0
09/04:00pm 31.2 27.4 13.5 34 10.6 SW 26 33 14 18 1012.6 1012.6 0.0
09/03:30pm 31.2 28.6 14.8 37 10.0 WSW 22 30 12 16 1012.8 1012.8 0.0
09/03:00pm 29.5 26.4 14.5 40 9.1 WSW 24 30 13 16 1013.0 1013.0 0.0
09/02:30pm 29.5 26.2 14.1 39 9.3 WSW 24 32 13 17 1013.1 1013.1 0.0
09/02:00pm 29.9 27.0 14.0 37 9.6 W 22 28 12 15 1013.0 1013.0 0.0
09/01:30pm 29.8 27.6 14.4 39 9.3 W 19 24 10 13 1012.9 1012.9 0.0
09/01:00pm 29.4 27.6 14.4 40 9.1 WSW 17 24 9 13 1013.2 1013.2 0.0
09/12:30pm 28.6 27.3 13.7 40 8.9 SW 13 20 7 11 1013.5 1013.5 0.0
09/12:00pm 27.4 26.2 14.1 44 7.9 SW 13 22 7 12 1014.0 1014.0 0.0
09/11:30am 25.7 24.6 14.2 49 6.8 SW 13 19 7 10 1014.4 1014.4 0.0
09/11:00am 24.1 23.4 14.2 54 5.8 SW 11 19 6 10 1014.6 1014.6 0.0
09/10:30am 23.9 22.8 14.3 55 5.7 SSW 13 19 7 10 1014.7 1014.7 0.0
09/10:00am 23.2 22.1 14.2 57 5.3 SW 13 17 7 9 1015.1 1015.1 0.0
09/09:30am 22.6 21.3 13.7 57 5.2 SSW 13 19 7 10 1015.4 1015.4 0.0
09/09:00am 22.4 20.7 13.7 58 5.0 S 15 19 8 10 1015.7 1015.7 0.4
09/08:30am 21.3 19.8 13.0 59 4.7 SSE 13 15 7 8 1016.1 1016.1 0.4
09/08:00am 20.0 18.4 12.7 63 4.1 SE 13 15 7 8 1016.3 1016.3 0.4
09/07:30am 19.2 17.6 12.7 66 3.6 ESE 13 19 7 10 1015.9 1015.9 0.4
09/07:00am 18.0 17.3 13.3 74 2.7 ENE 9 11 5 6 1016.0 1016.0 0.4
09/06:30am 16.4 16.2 12.9 80 1.9 E 6 9 3 5 1015.7 1015.7 0.4
09/06:00am 16.4 16.0 12.9 80 1.9 NE 7 11 4 6 1015.4 1015.4 0.4
09/05:30am 16.5 17.4 12.8 79 2.1 CALM 0 0 0 0 1015.4 1015.4 0.4
09/05:00am 16.5 16.0 12.8 79 2.1 E 7 9 4 5 1015.2 1015.2 0.4
09/04:30am 16.7 15.4 12.5 76 2.3 ESE 11 15 6 8 1014.9 1014.9 0.4
09/04:00am 16.8 15.6 12.7 77 2.3 ESE 11 13 6 7 1014.9 1014.9 0.4
09/03:30am 16.5 15.3 12.8 79 2.1 SE 11 13 6 7 1014.9 1014.9 0.4
09/03:00am 16.5 15.3 12.8 79 2.1 ESE 11 15 6 8 1015.0 1015.0 0.4
09/02:30am 17.4 14.5 12.9 75 2.5 SE 20 26 11 14 1015.0 1015.0 0.4
09/02:00am 17.4 15.1 12.9 75 2.5 SE 17 24 9 13 1015.3 1015.3 0.4
09/01:30am 17.5 14.6 13.0 75 2.5 SE 20 28 11 15 1015.3 1015.3 0.4
09/01:00am 18.0 15.7 13.1 73 2.8 SE 17 28 9 15 1015.8 1015.8 0.4
09/12:30am 18.0 13.3 13.1 73 2.8 SE 30 41 16 22 1015.6 1015.6 0.4
09/12:00am 18.0 14.9 13.3 74 2.6 SE 22 30 12 16 1015.7 1015.7 0.4
 
Date/Time
CDT
Temp
°C
App
Temp
°C
Dew
Point
°C
Rel
Hum
%
Delta-T
°C
Wind Press
QNH
hPa
Press
MSL
hPa
Rain since
9am
mm
Dir  Spd
km/h
Gust
km/h
Spd
kts
Gust
kts
08/11:30pm 18.1 15.9 13.2 73 2.8 SSE 17 26 9 14 1016.5 1016.5 0.4
08/11:00pm 18.2 15.4 13.1 72 2.9 SE 20 33 11 18 1016.6 1016.6 0.4
08/10:30pm 18.5 15.2 12.7 69 3.2 SE 22 30 12 16 1016.9 1016.9 0.4
08/10:00pm 18.5 15.9 12.0 66 3.6 SE 17 26 9 14 1016.8 1016.8 0.4
08/09:30pm 19.0 15.9 11.6 62 4.1 SE 19 26 10 14 1016.9 1016.9 0.4
08/09:00pm 19.4 17.5 11.7 61 4.2 ESE 13 24 7 13 1016.9 1016.9 0.4
08/08:30pm 19.3 16.4 12.3 64 3.9 SE 19 24 10 13 1016.7 1016.7 0.4
08/08:00pm 19.7 17.7 12.7 64 3.9 ESE 15 24 8 13 1016.7 1016.7 0.4
08/07:30pm 20.0 17.2 13.2 65 3.9 SE 20 26 11 14 1016.6 1016.6 0.4
08/07:00pm 20.8 18.4 13.7 64 4.1 ESE 19 24 10 13 1016.2 1016.2 0.4
08/06:30pm 21.7 18.1 14.1 62 4.4 SE 26 35 14 19 1015.7 1015.7 0.4
08/06:00pm 24.4 22.6 14.5 54 5.9 SE 17 22 9 12 1015.5 1015.5 0.4
08/05:30pm 24.3 22.0 14.7 55 5.7 SE 20 26 11 14 1015.0 1015.0 0.4
08/05:00pm 24.6 22.7 15.8 58 5.3 ESE 20 26 11 14 1015.1 1015.1 0.4
08/04:30pm 24.5 22.9 16.0 59 5.2 ESE 19 26 10 14 1015.2 1015.2 0.4
08/04:00pm 25.5 24.7 16.1 56 5.7 S 15 20 8 11 1016.2 1016.2 0.4
08/03:30pm 25.1 24.6 16.0 57 5.5 S 13 15 7 8 1016.6 1016.6 0.4
08/03:00pm 24.7 24.2 17.7 65 4.4 SW 17 26 9 14 1017.1 1017.1 0.4
08/02:30pm 25.1 26.2 18.1 65 4.4 WSW 9 17 5 9 1017.0 1017.0 0.4
08/02:00pm 24.9 26.3 18.6 68 4.0 WSW 9 17 5 9 1017.3 1017.3 0.4
08/01:30pm 24.5 26.4 18.9 71 3.6 WSW 7 9 4 5 1017.5 1017.5 0.4
08/01:00pm 23.2 22.9 18.3 74 3.1 SSW 17 26 9 14 1016.5 1016.5 0.4
08/12:30pm 22.6 22.1 17.9 75 2.9 SSW 17 24 9 13 1016.3 1016.3 0.4
08/12:17pm 22.3 21.2 17.7 75 2.9 WSW 20 39 11 21 1016.6 1016.6 0.4
08/12:00pm 23.1 24.4 18.4 75 3.0 SW 9 13 5 7 1015.6 1015.6 0.4
08/11:30am 22.9 22.7 18.4 76 2.8 SSW 17 20 9 11 1016.1 1016.1 0.4
08/11:00am 22.7 23.1 19.1 80 2.3 WSW 15 24 8 13 1016.4 1016.4 0.4
08/10:30am 24.0 23.5 19.1 74 3.1 NE 20 28 11 15 1015.3 1015.3 0.4
08/10:12am 21.7 22.3 20.3 92 0.9 ESE 17 24 9 13 1014.8 1014.8 0.4
08/10:00am 21.3 23.4 19.0 87 1.5 WSW 6 9 3 5 1016.9 1016.9 0.4
08/09:30am 21.1 22.4 18.5 85 1.6 NNW 9 11 5 6 1017.6 1017.6 0.0
08/09:00am 20.4 20.8 18.2 87 1.4 SE 13 15 7 8 1016.5 1016.5 0.0
08/08:30am 20.3 17.3 16.9 81 2.1 SW 28 39 15 21 1016.7 1016.7 0.0
08/08:00am 21.8 22.2 17.2 75 2.8 NE 11 30 6 16 1015.1 1015.1 0.0
08/07:30am 20.3 19.9 17.1 82 1.9 SE 15 20 8 11 1014.0 1014.0 0.0
08/07:00am 19.5 18.2 17.3 87 1.3 SW 20 28 11 15 1015.4 1015.4 0.0
08/06:30am 19.5 19.2 18.2 92 0.8 SSW 17 20 9 11 1014.0 1014.0 0.0
08/06:00am 21.6 21.2 17.2 76 2.7 W 15 20 8 11 1014.2 1014.2 0.0
08/05:30am 21.6 23.3 17.2 76 2.7 SSW 4 9 2 5 1013.5 1013.5 0.0
08/05:00am 22.4 23.0 16.7 70 3.5 W 9 13 5 7 1013.7 1013.7 0.0
08/04:30am 22.2 21.7 15.8 67 3.8 WSW 13 13 7 7 1013.4 1013.4 0.0
08/04:00am 22.0 23.0 15.4 66 3.9 SW 4 7 2 4 1013.1 1013.1 0.0
08/03:30am 22.5 22.4 14.9 62 4.5 W 9 13 5 7 1013.5 1013.5 0.0
08/03:00am 23.1 23.2 13.8 55 5.4 SW 6 7 3 4 1013.4 1013.4 0.0
08/02:30am 23.0 22.5 13.8 56 5.4 S 9 11 5 6 1013.3 1013.3 0.0
08/02:00am 23.5 22.6 13.7 54 5.7 SE 11 15 6 8 1013.6 1013.6 0.0
08/01:30am 22.7 21.8 13.7 56 5.2 E 11 13 6 7 1013.8 1013.8 0.0
08/01:00am 22.6 22.2 14.2 59 4.9 SSW 9 13 5 7 1014.4 1014.4 0.0
08/12:30am 24.3 21.6 13.5 51 6.3 WSW 20 28 11 15 1014.5 1014.5 0.0
08/12:00am 23.2 22.3 12.5 51 6.1 W 9 11 5 6 1014.2 1014.2 0.0
 
Date/Time
CDT
Temp
°C
App
Temp
°C
Dew
Point
°C
Rel
Hum
%
Delta-T
°C
Wind Press
QNH
hPa
Press
MSL
hPa
Rain since
9am
mm
Dir  Spd
km/h
Gust
km/h
Spd
kts
Gust
kts
07/11:30pm 24.2 23.2 12.2 47 6.8 E 9 13 5 7 1013.0 1013.0 0.0
07/11:00pm 24.9 23.7 10.4 40 8.0 SE 7 9 4 5 1012.8 1012.8 0.0
07/10:30pm 25.4 23.8 10.1 38 8.5 SE 9 13 5 7 1012.7 1012.7 0.0
07/10:00pm 25.8 23.9 10.4 38 8.6 SSE 11 15 6 8 1012.2 1012.2 0.0

Latest Capital City Observations: Canberra | Sydney | Melbourne | Brisbane | Adelaide | Perth | Hobart | Darwin

Other Formats:

Comma delimited format used in spreadsheet applications
http://www.bom.gov.au/fwo/IDS60901/IDS60901.95677.axf

JavaScript Object Notation format (JSON) in row-major order
http://www.bom.gov.au/fwo/IDS60901/IDS60901.95677.json